createdAt,value
2022-08-22T00:00:19.482Z,5.75
2022-08-22T00:02:52.695Z,6.15
2022-08-22T00:02:55.613Z,5.78
2022-08-22T00:03:00.023Z,8.30
2022-08-22T00:03:00.574Z,5.45
2022-08-22T00:03:01.248Z,5.80
2022-08-22T00:03:04.819Z,5.85
2022-08-22T00:03:06.994Z,5.88
2022-08-22T00:06:01.344Z,5.70
2022-08-22T00:08:39.485Z,5.53
2022-08-22T00:11:15.972Z,5.43
2022-08-22T00:14:01.476Z,5.70
2022-08-22T00:16:39.595Z,5.63
2022-08-22T00:19:18.076Z,5.40
2022-08-22T00:21:57.628Z,5.65
2022-08-22T00:24:31.832Z,5.40
2022-08-22T00:27:08.590Z,5.25
2022-08-22T00:29:43.422Z,5.85
2022-08-22T00:32:17.142Z,5.70
2022-08-22T00:34:54.472Z,5.88
2022-08-22T00:37:28.916Z,5.65
2022-08-22T00:40:09.578Z,5.70
2022-08-22T00:43:04.443Z,5.63
2022-08-22T00:46:03.261Z,5.25
2022-08-22T00:49:02.212Z,5.22
2022-08-22T00:51:51.765Z,5.28
2022-08-22T00:54:30.428Z,5.00
2022-08-22T00:57:31.063Z,5.75
2022-08-22T01:00:16.077Z,5.45
2022-08-22T01:03:19.981Z,6.07
2022-08-22T01:06:04.535Z,5.10
2022-08-22T01:08:43.129Z,5.72
2022-08-22T01:11:27.883Z,5.22
2022-08-22T01:14:13.184Z,5.30
2022-08-22T01:17:08.418Z,5.40
2022-08-22T01:20:11.003Z,5.68
2022-08-22T01:23:25.238Z,5.60
2022-08-22T01:26:31.244Z,5.40
2022-08-22T01:29:28.658Z,5.38
2022-08-22T01:32:42.702Z,6.10
2022-08-22T01:35:31.999Z,5.10
2022-08-22T01:38:34.793Z,5.85
2022-08-22T01:41:26.810Z,5.82
2022-08-22T01:44:21.523Z,6.10
2022-08-22T01:46:59.416Z,6.00
2022-08-22T01:49:38.050Z,6.30
2022-08-22T01:52:12.650Z,5.35
2022-08-22T01:54:51.889Z,6.13
2022-08-22T01:57:21.171Z,5.60
2022-08-22T01:59:53.394Z,5.57
2022-08-22T02:02:36.821Z,5.50
2022-08-22T02:05:12.239Z,6.20
2022-08-22T02:07:49.776Z,5.97
2022-08-22T02:10:24.576Z,5.80
2022-08-22T02:13:04.924Z,5.45
2022-08-22T02:15:47.961Z,5.55
2022-08-22T02:18:21.843Z,5.88
2022-08-22T02:21:01.651Z,5.80
2022-08-22T02:23:37.963Z,5.70
2022-08-22T02:26:10.517Z,5.65
2022-08-22T02:28:56.413Z,6.15
2022-08-22T02:31:38.276Z,5.95
2022-08-22T02:34:22.931Z,6.63
2022-08-22T02:36:58.253Z,5.95
2022-08-22T02:39:36.930Z,5.63
2022-08-22T02:42:18.273Z,5.72
2022-08-22T02:45:01.651Z,6.00
2022-08-22T02:47:37.134Z,5.60
2022-08-22T02:50:18.782Z,6.07
2022-08-22T02:52:58.394Z,4.80
2022-08-22T02:55:47.211Z,5.03
2022-08-22T02:58:24.304Z,6.13
2022-08-22T03:01:17.723Z,5.43
2022-08-22T03:03:48.351Z,6.22
2022-08-22T03:06:40.542Z,5.40
2022-08-22T03:09:23.111Z,5.75
2022-08-22T03:12:05.582Z,5.45
2022-08-22T03:14:44.401Z,7.15
2022-08-22T03:17:20.432Z,6.63
2022-08-22T03:20:01.339Z,6.60
2022-08-22T03:22:37.827Z,6.15
2022-08-22T03:25:15.563Z,5.53
2022-08-22T03:27:52.424Z,6.45
2022-08-22T03:30:24.445Z,5.90
2022-08-22T03:32:56.357Z,6.95
2022-08-22T03:35:40.145Z,6.05
2022-08-22T03:38:19.297Z,5.65
2022-08-22T03:41:09.725Z,4.95
2022-08-22T03:44:03.147Z,5.50
2022-08-22T03:46:46.444Z,6.13
2022-08-22T03:49:59.823Z,5.40
2022-08-22T03:53:18.970Z,6.18
2022-08-22T03:56:14.423Z,5.75
2022-08-22T03:59:16.334Z,5.75
2022-08-22T04:02:35.837Z,5.65
2022-08-22T04:05:40.754Z,5.85
2022-08-22T04:08:53.379Z,6.20
2022-08-22T04:12:00.872Z,6.03
2022-08-22T04:14:50.907Z,5.85
2022-08-22T04:17:55.554Z,5.80
2022-08-22T04:20:58.823Z,5.57
2022-08-22T04:23:54.690Z,5.55
2022-08-22T04:26:33.277Z,6.10
2022-08-22T04:29:08.999Z,5.60
2022-08-22T04:31:53.494Z,6.00
2022-08-22T04:34:27.659Z,5.95
2022-08-22T04:37:04.810Z,6.28
2022-08-22T04:39:39.815Z,5.93
2022-08-22T04:42:32.326Z,6.45
2022-08-22T04:45:07.367Z,6.22
2022-08-22T04:47:41.471Z,6.50
2022-08-22T04:50:23.558Z,6.35
2022-08-22T04:53:05.983Z,5.72
2022-08-22T04:55:55.412Z,6.07
2022-08-22T04:58:37.538Z,5.65
2022-08-22T05:01:16.833Z,6.50
2022-08-22T05:03:53.383Z,6.78
2022-08-22T05:06:28.601Z,6.60
2022-08-22T05:09:04.185Z,7.10
2022-08-22T05:11:35.769Z,7.78
2022-08-22T05:14:09.959Z,6.72
2022-08-22T05:16:43.009Z,6.22
2022-08-22T05:19:18.251Z,6.80
2022-08-22T05:21:51.625Z,6.20
2022-08-22T05:24:28.102Z,6.15
2022-08-22T05:27:00.694Z,6.20
2022-08-22T05:29:31.680Z,7.72
2022-08-22T05:32:05.610Z,6.53
2022-08-22T05:34:40.501Z,6.75
2022-08-22T05:37:15.324Z,7.05
2022-08-22T05:39:48.614Z,7.32
2022-08-22T05:42:23.213Z,7.50
2022-08-22T05:44:52.192Z,7.28
2022-08-22T05:47:24.033Z,6.88
2022-08-22T05:50:01.838Z,6.50
2022-08-22T05:52:43.363Z,7.22
2022-08-22T05:55:23.695Z,7.30
2022-08-22T05:58:11.834Z,6.13
2022-08-22T06:00:44.380Z,6.88
2022-08-22T06:03:19.606Z,8.02
2022-08-22T06:05:54.298Z,10.93
2022-08-22T06:08:25.948Z,8.35
2022-08-22T06:10:59.215Z,7.20
2022-08-22T06:13:34.986Z,7.57
2022-08-22T06:16:10.652Z,8.40
2022-08-22T06:18:41.955Z,8.52
2022-08-22T06:21:19.260Z,8.40
2022-08-22T06:23:51.936Z,8.57
2022-08-22T06:26:21.974Z,9.73
2022-08-22T06:28:55.058Z,9.50
2022-08-22T06:31:30.587Z,8.95
2022-08-22T06:34:05.274Z,9.00
2022-08-22T06:36:38.590Z,9.63
2022-08-22T06:39:16.678Z,9.05
2022-08-22T06:41:50.458Z,9.27
2022-08-22T06:44:23.461Z,9.80
2022-08-22T06:46:56.449Z,10.35
2022-08-22T06:49:27.042Z,10.73
2022-08-22T06:52:01.014Z,9.98
2022-08-22T06:54:36.193Z,9.68
2022-08-22T06:57:07.434Z,9.82
2022-08-22T06:59:39.404Z,10.52
2022-08-22T07:02:20.796Z,9.57
2022-08-22T07:04:50.386Z,9.43
2022-08-22T07:07:21.457Z,9.43
2022-08-22T07:09:55.541Z,9.30
2022-08-22T07:12:29.851Z,8.93
2022-08-22T07:15:02.892Z,9.18
2022-08-22T07:17:35.901Z,8.98
2022-08-22T07:20:23.953Z,9.25
2022-08-22T07:22:57.652Z,9.32
2022-08-22T07:25:27.090Z,8.68
2022-08-22T07:28:36.644Z,8.05
2022-08-22T07:31:16.875Z,8.68
2022-08-22T07:33:50.822Z,8.23
2022-08-22T07:36:31.416Z,7.55
2022-08-22T07:39:17.764Z,8.88
2022-08-22T07:42:10.718Z,7.72
2022-08-22T07:44:58.250Z,6.65
2022-08-22T07:47:34.213Z,6.70
2022-08-22T07:50:07.213Z,5.97
2022-08-22T07:52:41.902Z,6.38
2022-08-22T07:55:18.913Z,5.50
2022-08-22T07:57:53.833Z,6.05
2022-08-22T08:00:25.012Z,5.85
2022-08-22T08:02:58.203Z,5.20
2022-08-22T08:05:30.422Z,5.40
2022-08-22T08:08:01.036Z,5.80
2022-08-22T08:10:35.516Z,5.47
2022-08-22T08:13:12.646Z,5.10
2022-08-22T08:15:45.425Z,5.00
2022-08-22T08:18:19.464Z,4.82
2022-08-22T08:20:51.960Z,4.60
2022-08-22T08:23:23.809Z,4.35
2022-08-22T08:26:03.932Z,4.82
2022-08-22T08:28:34.787Z,4.63
2022-08-22T08:31:08.607Z,4.07
2022-08-22T08:33:41.278Z,3.80
2022-08-22T08:36:23.393Z,3.58
2022-08-22T08:38:58.582Z,3.10
2022-08-22T08:41:46.694Z,2.70
2022-08-22T08:44:34.165Z,2.40
2022-08-22T08:47:23.264Z,2.20
2022-08-22T08:50:11.725Z,2.60
2022-08-22T08:52:59.470Z,2.60
2022-08-22T08:55:43.658Z,2.92
2022-08-22T08:58:40.738Z,2.22
2022-08-22T09:01:34.574Z,2.38
2022-08-22T09:04:25.206Z,2.28
2022-08-22T09:07:25.946Z,2.10
2022-08-22T09:10:12.184Z,2.55
2022-08-22T09:13:19.676Z,1.90
2022-08-22T09:16:05.026Z,2.33
2022-08-22T09:19:28.212Z,2.22
2022-08-22T09:22:14.349Z,2.40
2022-08-22T09:25:12.614Z,2.50
2022-08-22T09:27:50.158Z,2.25
2022-08-22T09:30:27.551Z,2.47
2022-08-22T09:33:03.529Z,2.60
2022-08-22T09:35:41.129Z,2.25
2022-08-22T09:38:27.611Z,2.72
2022-08-22T09:41:06.293Z,2.35
2022-08-22T09:43:44.174Z,2.72
2022-08-22T09:46:29.465Z,2.38
2022-08-22T09:49:12.668Z,2.60
2022-08-22T09:51:46.337Z,2.30
2022-08-22T09:54:31.064Z,2.75
2022-08-22T09:57:09.489Z,2.38
2022-08-22T09:59:58.503Z,2.53
2022-08-22T10:02:34.520Z,1.98
2022-08-22T10:05:41.043Z,2.40
2022-08-22T10:08:26.594Z,2.67
2022-08-22T10:11:11.168Z,2.20
2022-08-22T10:13:57.332Z,2.15
2022-08-22T10:16:52.514Z,2.00
2022-08-22T10:19:28.536Z,1.77
2022-08-22T10:22:30.815Z,1.70
2022-08-22T10:25:09.303Z,1.80
2022-08-22T10:28:03.632Z,1.92
2022-08-22T10:30:39.654Z,2.13
2022-08-22T10:33:14.874Z,1.88
2022-08-22T10:35:59.997Z,1.73
2022-08-22T10:38:46.153Z,1.80
2022-08-22T10:41:28.157Z,1.80
2022-08-22T10:44:05.106Z,1.95
2022-08-22T10:46:39.529Z,1.83
2022-08-22T10:49:20.348Z,1.75
2022-08-22T10:51:59.972Z,1.48
2022-08-22T10:54:49.362Z,1.70
2022-08-22T10:57:37.393Z,1.50
2022-08-22T11:00:14.219Z,1.52
2022-08-22T11:02:53.607Z,1.52
2022-08-22T11:05:39.342Z,1.65
2022-08-22T11:08:20.463Z,1.75
2022-08-22T11:11:08.178Z,1.88
2022-08-22T11:13:43.308Z,1.77
2022-08-22T11:16:42.002Z,1.90
2022-08-22T11:19:44.916Z,1.98
2022-08-22T11:22:30.328Z,1.50
2022-08-22T11:25:35.827Z,1.63
2022-08-22T11:28:30.918Z,1.75
2022-08-22T11:31:07.742Z,1.98
2022-08-22T11:33:46.934Z,1.90
2022-08-22T11:36:31.082Z,1.60
2022-08-22T11:39:18.020Z,1.80
2022-08-22T11:41:56.208Z,1.60
2022-08-22T11:44:34.588Z,1.55
2022-08-22T11:47:24.805Z,1.48
2022-08-22T11:50:01.413Z,1.73
2022-08-22T11:52:52.021Z,1.58
2022-08-22T11:55:32.558Z,1.80
2022-08-22T11:58:16.961Z,1.65
2022-08-22T12:00:55.279Z,1.90
2022-08-22T12:03:51.031Z,1.75
2022-08-22T12:06:42.604Z,1.60
2022-08-22T12:09:31.872Z,1.67
2022-08-22T12:12:20.941Z,1.95
2022-08-22T12:14:58.268Z,1.50
2022-08-22T12:18:01.612Z,1.80
2022-08-22T12:21:00.046Z,1.70
2022-08-22T12:24:20.828Z,1.50
2022-08-22T12:27:00.563Z,1.45
2022-08-22T12:29:44.893Z,1.60
2022-08-22T12:32:50.758Z,1.70
2022-08-22T12:35:41.145Z,1.52
2022-08-22T12:38:37.750Z,1.73
2022-08-22T12:41:40.031Z,1.83
2022-08-22T12:44:30.087Z,1.85
2022-08-22T12:47:14.339Z,1.58
2022-08-22T12:50:16.588Z,1.73
2022-08-22T12:53:05.181Z,1.70
2022-08-22T12:55:56.088Z,1.60
2022-08-22T12:58:36.569Z,1.35
2022-08-22T13:01:09.219Z,1.60
2022-08-22T13:03:44.720Z,1.75
2022-08-22T13:06:51.017Z,1.63
2022-08-22T13:09:30.682Z,1.90
2022-08-22T13:12:05.598Z,1.25
2022-08-22T13:14:36.828Z,1.70
2022-08-22T13:17:24.034Z,1.33
2022-08-22T13:20:08.615Z,1.58
2022-08-22T13:22:45.620Z,1.40
2022-08-22T13:25:26.165Z,1.58
2022-08-22T13:27:59.297Z,1.73
2022-08-22T13:30:33.434Z,1.33
2022-08-22T13:33:10.111Z,1.58
2022-08-22T13:35:44.532Z,1.52
2022-08-22T13:38:25.597Z,1.30
2022-08-22T13:40:58.788Z,1.45
2022-08-22T13:43:33.846Z,1.48
2022-08-22T13:46:05.389Z,1.60
2022-08-22T13:48:49.891Z,1.60
2022-08-22T13:51:26.301Z,1.60
2022-08-22T13:54:03.307Z,1.60
2022-08-22T13:56:50.463Z,1.45
2022-08-22T13:59:49.711Z,1.50
2022-08-22T14:02:35.036Z,1.80
2022-08-22T14:05:09.921Z,1.73
2022-08-22T14:07:44.794Z,1.33
2022-08-22T14:10:21.335Z,1.70
2022-08-22T14:13:20.423Z,1.50
2022-08-22T14:15:49.445Z,1.70
2022-08-22T14:18:31.718Z,2.55
2022-08-22T14:21:33.449Z,1.85
2022-08-22T14:24:18.930Z,1.50
2022-08-22T14:26:54.555Z,1.50
2022-08-22T14:29:34.855Z,1.42
2022-08-22T14:32:14.725Z,1.30
2022-08-22T14:34:49.473Z,1.58
2022-08-22T14:37:23.068Z,1.35
2022-08-22T14:39:56.747Z,1.45
2022-08-22T14:42:29.659Z,1.20
2022-08-22T14:45:06.653Z,1.60
2022-08-22T14:48:14.445Z,1.65
2022-08-22T14:50:39.865Z,1.77
2022-08-22T14:53:13.687Z,1.50
2022-08-22T14:55:43.573Z,1.80
2022-08-22T14:58:26.468Z,1.30
2022-08-22T15:01:08.020Z,1.40
2022-08-22T15:03:40.931Z,1.58
2022-08-22T15:06:14.396Z,1.35
2022-08-22T15:08:51.309Z,1.55
2022-08-22T15:11:25.204Z,1.42
2022-08-22T15:14:01.424Z,1.38
2022-08-22T15:16:36.122Z,1.60
2022-08-22T15:19:22.722Z,1.38
2022-08-22T15:21:52.138Z,1.50
2022-08-22T15:24:22.564Z,1.30
2022-08-22T15:26:55.514Z,1.20
2022-08-22T15:29:28.026Z,1.50
2022-08-22T15:32:03.292Z,1.60
2022-08-22T15:34:37.887Z,1.27
2022-08-22T15:37:32.399Z,1.33
2022-08-22T15:40:11.664Z,1.73
2022-08-22T15:42:45.168Z,1.67
2022-08-22T15:45:33.653Z,1.40
2022-08-22T15:48:08.761Z,1.50
2022-08-22T15:50:41.871Z,1.50
2022-08-22T15:53:16.065Z,1.60
2022-08-22T15:56:19.565Z,1.70
2022-08-22T15:58:51.456Z,1.27
2022-08-22T16:01:23.149Z,1.63
2022-08-22T16:04:01.119Z,1.40
2022-08-22T16:06:46.646Z,1.42
2022-08-22T16:09:40.374Z,1.60
2022-08-22T16:12:13.626Z,1.50
2022-08-22T16:14:50.739Z,1.30
2022-08-22T16:17:42.941Z,1.45
2022-08-22T16:20:54.834Z,1.35
2022-08-22T16:23:24.993Z,1.60
2022-08-22T16:26:15.375Z,1.25
2022-08-22T16:28:58.218Z,1.33
2022-08-22T16:31:35.979Z,1.58
2022-08-22T16:34:39.388Z,1.70
2022-08-22T16:37:31.643Z,4.43
2022-08-22T16:40:19.514Z,1.88
2022-08-22T16:42:52.334Z,1.65
2022-08-22T16:45:33.887Z,1.63
2022-08-22T16:48:25.819Z,1.60
2022-08-22T16:51:18.454Z,1.80
2022-08-22T16:54:11.081Z,1.60
2022-08-22T16:57:05.585Z,1.45
2022-08-22T16:59:50.493Z,1.60
2022-08-22T17:02:43.269Z,1.90
2022-08-22T17:05:32.283Z,1.60
2022-08-22T17:08:17.427Z,1.77
2022-08-22T17:11:00.151Z,1.90
2022-08-22T17:13:47.897Z,1.85
2022-08-22T17:16:32.787Z,1.50
2022-08-22T17:19:22.284Z,2.15
2022-08-22T17:21:55.959Z,2.17
2022-08-22T17:24:34.467Z,2.10
2022-08-22T17:27:13.293Z,2.28
2022-08-22T17:30:01.046Z,2.00
2022-08-22T17:32:38.184Z,2.17
2022-08-22T17:35:18.002Z,1.85
2022-08-22T17:37:58.496Z,2.53
2022-08-22T17:40:37.693Z,2.45
2022-08-22T17:43:21.273Z,2.15
2022-08-22T17:46:16.538Z,2.05
2022-08-22T17:48:51.640Z,2.20
2022-08-22T17:51:28.799Z,1.85
2022-08-22T17:54:02.673Z,1.98
2022-08-22T17:56:40.826Z,2.00
2022-08-22T17:59:16.047Z,2.03
2022-08-22T18:01:54.555Z,2.17
2022-08-22T18:04:32.420Z,2.47
2022-08-22T18:07:24.283Z,2.17
2022-08-22T18:09:59.207Z,1.80
2022-08-22T18:12:34.462Z,2.40
2022-08-22T18:15:09.482Z,2.00
2022-08-22T18:17:44.351Z,2.03
2022-08-22T18:20:18.592Z,2.25
2022-08-22T18:22:51.278Z,2.42
2022-08-22T18:25:41.772Z,2.10
2022-08-22T18:28:15.535Z,2.05
2022-08-22T18:30:59.474Z,2.30
2022-08-22T18:33:35.368Z,2.17
2022-08-22T18:36:12.752Z,2.20
2022-08-22T18:38:50.612Z,2.10
2022-08-22T18:41:27.347Z,5.43
2022-08-22T18:43:57.469Z,4.47
2022-08-22T18:46:41.428Z,3.08
2022-08-22T18:49:29.909Z,2.50
2022-08-22T18:52:21.850Z,2.95
2022-08-22T18:55:13.182Z,2.75
2022-08-22T18:58:03.520Z,3.58
2022-08-22T19:00:49.099Z,4.32
2022-08-22T19:03:31.865Z,5.78
2022-08-22T19:06:28.348Z,4.30
2022-08-22T19:09:24.244Z,4.38
2022-08-22T19:12:02.908Z,3.40
2022-08-22T19:14:51.094Z,5.95
2022-08-22T19:17:43.960Z,7.43
2022-08-22T19:20:46.200Z,10.38
2022-08-22T19:23:47.444Z,12.13
2022-08-22T19:26:34.557Z,7.00
2022-08-22T19:29:10.655Z,6.95
2022-08-22T19:31:48.975Z,7.93
2022-08-22T19:34:36.206Z,5.43
2022-08-22T19:37:32.435Z,4.63
2022-08-22T19:40:07.291Z,5.00
2022-08-22T19:42:39.030Z,3.65
2022-08-22T19:45:19.581Z,2.45
2022-08-22T19:47:57.839Z,3.00
2022-08-22T19:50:31.617Z,3.25
2022-08-22T19:53:18.408Z,3.10
2022-08-22T19:56:18.249Z,2.40
2022-08-22T19:58:57.243Z,2.60
2022-08-22T20:01:46.760Z,2.80
2022-08-22T20:04:42.335Z,2.50
2022-08-22T20:07:23.695Z,2.70
2022-08-22T20:10:02.103Z,3.28
2022-08-22T20:12:39.625Z,3.40
2022-08-22T20:15:20.144Z,2.95
2022-08-22T20:20:57.782Z,3.13
2022-08-22T20:23:30.510Z,3.00
2022-08-22T20:26:07.843Z,2.53
2022-08-22T20:28:48.740Z,2.75
2022-08-22T20:31:23.106Z,3.20
2022-08-22T20:33:56.545Z,5.65
2022-08-22T20:36:27.661Z,6.57
2022-08-22T20:39:02.420Z,5.30
2022-08-22T20:41:35.537Z,3.25
2022-08-22T20:44:12.507Z,3.78
2022-08-22T20:46:55.690Z,4.85
2022-08-22T20:49:29.411Z,3.40
2022-08-22T20:52:00.875Z,3.55
2022-08-22T20:54:31.922Z,2.80
2022-08-22T20:57:02.672Z,3.30
2022-08-22T20:59:36.961Z,3.30
2022-08-22T21:02:14.600Z,3.30
2022-08-22T21:04:52.800Z,2.80
2022-08-22T21:07:24.527Z,2.70
2022-08-22T21:10:22.104Z,2.80
2022-08-22T21:13:10.726Z,3.00
2022-08-22T21:15:42.928Z,3.00
2022-08-22T21:18:13.643Z,2.85
2022-08-22T21:20:42.676Z,2.80
2022-08-22T21:23:15.560Z,2.65
2022-08-22T21:25:59.231Z,3.05
2022-08-22T21:28:31.189Z,3.22
2022-08-22T21:31:08.411Z,2.67
2022-08-22T21:33:41.525Z,3.10
2022-08-22T21:36:13.349Z,3.38
2022-08-22T21:38:49.087Z,3.17
2022-08-22T21:41:26.720Z,3.25
2022-08-22T21:43:55.991Z,3.22
2022-08-22T21:46:29.884Z,3.42
2022-08-22T21:49:03.080Z,3.20
2022-08-22T21:51:41.915Z,3.00
2022-08-22T21:54:41.164Z,3.10
2022-08-22T21:57:24.313Z,3.53
2022-08-22T21:59:59.785Z,3.25
2022-08-22T22:02:37.002Z,3.42
2022-08-22T22:05:09.310Z,3.30
2022-08-22T22:07:39.361Z,3.65
2022-08-22T22:10:10.863Z,3.13
2022-08-22T22:12:41.387Z,3.85
2022-08-22T22:15:13.269Z,3.17
2022-08-22T22:17:43.446Z,3.20
2022-08-22T22:20:15.222Z,3.33
2022-08-22T22:22:46.536Z,3.47
2022-08-22T22:25:41.225Z,3.70
2022-08-22T22:28:09.162Z,3.53
2022-08-22T22:30:38.019Z,3.72
2022-08-22T22:33:08.101Z,3.50
2022-08-22T22:35:38.915Z,3.13
2022-08-22T22:38:08.405Z,3.70
2022-08-22T22:40:37.513Z,3.80
2022-08-22T22:43:06.412Z,4.00
2022-08-22T22:45:35.114Z,3.83
2022-08-22T22:48:04.576Z,4.07
2022-08-22T22:50:38.009Z,3.70
2022-08-22T22:53:06.690Z,3.40
2022-08-22T22:55:41.676Z,3.85
2022-08-22T22:58:10.847Z,4.38
2022-08-22T23:00:39.580Z,4.28
2022-08-22T23:03:08.356Z,4.10
2022-08-22T23:05:38.368Z,4.05
2022-08-22T23:08:07.056Z,4.15
2022-08-22T23:10:35.680Z,4.60
2022-08-22T23:13:06.757Z,4.28
2022-08-22T23:15:35.460Z,4.53
2022-08-22T23:18:04.351Z,4.53
2022-08-22T23:20:33.029Z,4.28
2022-08-22T23:23:03.145Z,4.32
2022-08-22T23:25:31.890Z,4.18
2022-08-22T23:28:00.674Z,4.40
2022-08-22T23:30:30.298Z,4.50
2022-08-22T23:32:58.981Z,4.00
2022-08-22T23:35:27.653Z,4.20
2022-08-22T23:37:56.532Z,4.05
2022-08-22T23:40:26.664Z,3.90
2022-08-22T23:42:56.898Z,4.03
2022-08-22T23:45:26.605Z,4.57
2022-08-22T23:47:55.356Z,4.57
2022-08-22T23:50:24.012Z,4.05
2022-08-22T23:52:52.680Z,4.18
2022-08-22T23:55:21.398Z,4.05
2022-08-22T23:57:51.393Z,3.97
